createdAt,value
2022-11-01T00:01:18.828Z,15.82
2022-11-01T00:06:20.909Z,19.58
2022-11-01T00:11:22.981Z,13.90
2022-11-01T00:16:25.525Z,16.88
2022-11-01T00:21:27.537Z,16.25
2022-11-01T00:26:29.632Z,13.55
2022-11-01T00:31:32.064Z,15.75
2022-11-01T00:36:35.355Z,13.15
2022-11-01T00:41:37.337Z,13.65
2022-11-01T00:46:39.342Z,17.92
2022-11-01T00:51:41.477Z,10.73
2022-11-01T00:56:43.476Z,16.33
2022-11-01T01:01:45.586Z,13.45
2022-11-01T01:06:47.710Z,15.75
2022-11-01T01:11:49.687Z,10.30
2022-11-01T01:16:51.780Z,11.77
2022-11-01T01:21:53.764Z,13.52
2022-11-01T01:26:55.754Z,12.10
2022-11-01T01:31:57.704Z,9.88
2022-11-01T01:36:59.755Z,9.45
2022-11-01T01:42:04.892Z,13.18
2022-11-01T01:47:07.379Z,12.70
2022-11-01T01:52:10.076Z,17.73
2022-11-01T01:57:12.494Z,14.20
2022-11-01T02:02:14.983Z,13.73
2022-11-01T02:07:17.072Z,11.25
2022-11-01T02:12:19.234Z,13.70
2022-11-01T02:17:39.545Z,10.05
2022-11-01T02:23:04.769Z,9.20
2022-11-01T02:28:45.697Z,12.88
2022-11-01T02:34:01.838Z,9.75
2022-11-01T02:39:18.020Z,12.07
2022-11-01T02:44:27.644Z,13.45
2022-11-01T02:49:40.055Z,13.15
2022-11-01T02:54:49.834Z,9.40
2022-11-01T02:59:51.885Z,4.97
2022-11-01T03:04:54.031Z,6.97
2022-11-01T03:09:56.074Z,5.55
2022-11-01T03:15:20.961Z,5.40
2022-11-01T03:21:15.347Z,5.35
2022-11-01T03:26:25.066Z,3.30
2022-11-01T03:31:32.568Z,2.80
2022-11-01T03:36:42.743Z,3.50
2022-11-01T03:41:49.301Z,2.67
2022-11-01T03:46:51.501Z,6.82
2022-11-01T03:51:53.645Z,4.45
2022-11-01T03:56:56.144Z,2.47
2022-11-01T04:01:58.346Z,2.47
2022-11-01T04:07:00.531Z,2.05
2022-11-01T04:12:04.863Z,4.68
2022-11-01T04:17:27.711Z,4.38
2022-11-01T04:22:29.694Z,8.63
2022-11-01T04:27:31.697Z,7.97
2022-11-01T04:32:33.692Z,6.78
2022-11-01T04:37:35.672Z,2.90
2022-11-01T04:42:37.797Z,2.88
2022-11-01T04:47:39.771Z,2.65
2022-11-01T04:52:41.824Z,2.90
2022-11-01T04:57:44.285Z,6.70
2022-11-01T05:02:46.305Z,3.22
2022-11-01T05:07:48.391Z,5.47
2022-11-01T05:12:50.453Z,4.63
2022-11-01T05:17:52.499Z,4.35
2022-11-01T05:22:59.836Z,5.47
2022-11-01T05:28:07.630Z,7.97
2022-11-01T05:33:10.728Z,7.40
2022-11-01T05:38:12.746Z,6.70
2022-11-01T05:43:15.047Z,7.60
2022-11-01T05:48:17.038Z,3.85
2022-11-01T05:53:19.073Z,5.45
2022-11-01T05:58:22.384Z,4.40
2022-11-01T06:03:27.300Z,5.05
2022-11-01T06:08:30.021Z,8.10
2022-11-01T06:13:33.363Z,10.25
2022-11-01T06:18:35.394Z,6.68
2022-11-01T06:23:37.829Z,7.07
2022-11-01T06:28:39.849Z,6.78
2022-11-01T06:33:41.843Z,9.23
2022-11-01T06:38:43.866Z,10.77
2022-11-01T06:43:48.289Z,8.13
2022-11-01T06:48:50.303Z,5.20
2022-11-01T06:53:52.308Z,9.00
2022-11-01T06:58:54.468Z,11.07
2022-11-01T07:03:56.606Z,7.63
2022-11-01T07:08:59.343Z,10.20
2022-11-01T07:14:01.434Z,7.97
2022-11-01T07:19:03.492Z,8.75
2022-11-01T07:24:05.773Z,7.90
2022-11-01T07:29:23.353Z,14.70
2022-11-01T07:34:25.344Z,10.68
2022-11-01T07:39:27.422Z,11.35
2022-11-01T07:44:29.455Z,11.65
2022-11-01T07:49:31.438Z,9.63
2022-11-01T07:54:33.401Z,14.20
2022-11-01T07:59:35.505Z,6.93
2022-11-01T08:04:37.547Z,9.88
2022-11-01T08:09:39.517Z,10.27
2022-11-01T08:14:41.634Z,12.95
2022-11-01T08:19:43.756Z,12.70
2022-11-01T08:24:45.765Z,12.43
2022-11-01T08:29:47.803Z,14.80
2022-11-01T08:34:49.909Z,9.52
2022-11-01T08:39:51.933Z,8.25
2022-11-01T08:44:53.928Z,9.63
2022-11-01T08:49:56.134Z,13.40
2022-11-01T08:54:58.117Z,15.68
